Seattle/Boeing Field, WA

8:04 PM PST on December 09, 2016 (GMT -0800)
Boeing Field-King County International | | Change Station

Elev 16 ft 47.53 °N, 122.30 °W | Updated 11 minutes ago

Light Rain
Light Rain
36 °F
Feels Like 30 °F
N
7
Wind Variable Wind from ESE

Today
High -- | Low -- °F
--% Chance of Precip.
Yesterday
High -- | Low -- °F
Precip. -- in
Pressure 29.83 in
Visibility 10.0 miles
Clouds Overcast 3300 ft
Windchill 30 °F
Dew Point 33 °F
Humidity 89%
Rainfall 0.22 in
Snow Depth Not available.
7:45 AM 4:17 PM
Waxing Gibbous, 80% visible
METAR KBFI 100353Z 12006KT 10SM -RA OVC033 02/01 A2983 RMK AO2 SLP102 P0001 T00220006
Pressure 29.83 in
Visibility 10.0 miles
Clouds Overcast 3300 ft
Windchill 30 °F
Dew Point 33 °F
Humidity 89%
Rainfall 0.22 in
Snow Depth Not available.
7:45 AM 4:17 PM
Waxing Gibbous, 80% visible
METAR KBFI 100353Z 12006KT 10SM -RA OVC033 02/01 A2983 RMK AO2 SLP102 P0001 T00220006

10-Day Weather Forecast

Almanac

Astronomy

Dec. 09, 2016 Rise Set
Actual Time
Civil Twilight
Nautical Twilight
Astronomical Twilight
Moon
Length of Visible Light
Length of Day
Tomorrow will be .
, % of the Moon is Illuminated

Today's Extremes

State Highs State Lows

Community

WunderPhotos

Upload Photos

1,956,529 photos uploaded!

WunderBlog® & News

Nearby

Air Quality

  Air Quality AQ Index Pollutant
Not available.

Snow Depth

Station Depth Elevation

Earthquake Activity

City Distance Mag. Time & Date
Minimum magnitude displayed is 2.5.

Coastal Water Temperatures

Place Temperature

Stations

Nearby Weather Stations

Station Location Temp. Windchill Dew Point Humidity Wind Precip. Elev Updated Type
                   

Watches & Warnings

There are currently no watches in effect.